Time;durP1;ratioP1;P1;durP2;ratioP2;P2;SDS_P1;SDS_P2;PMS_P1;PMS_P2;Temp;Humidity;BMP_temperature;BMP_pressure;BME280_temperature;BME280_humidity;BME280_pressure;Samples;Min_cycle;Max_cycle;Signal;HPM_P1;HPM_P2
2023/04/25 00:01:46;;;;;;;20.90;5.67;;;9.80;20.30;;;;;;5096120;28;20179;-68
2023/04/25 00:04:11;;;;;;;16.70;5.47;;;9.80;19.10;;;;;;5095807;28;20172;-68
2023/04/25 00:06:37;;;;;;;14.47;5.07;;;9.90;17.90;;;;;;5095467;28;20181;-68
2023/04/25 00:09:08;;;;;;;19.50;5.67;;;9.90;16.10;;;;;;5095620;28;20635;-68
2023/04/25 00:11:34;;;;;;;11.57;5.00;;;10.00;16.00;;;;;;5095856;28;20686;-68
2023/04/25 00:14:02;;;;;;;15.73;5.33;;;10.00;13.10;;;;;;5095567;28;20306;-68
2023/04/25 00:16:30;;;;;;;16.40;4.90;;;9.80;15.00;;;;;;5095735;28;20246;-68
2023/04/25 00:18:56;;;;;;;15.23;5.10;;;9.70;19.10;;;;;;5094879;28;20160;-67
2023/04/25 00:21:24;;;;;;;12.40;4.57;;;9.80;19.60;;;;;;5095610;28;20168;-67
2023/04/25 00:23:50;;;;;;;15.40;5.50;;;9.90;18.60;;;;;;5095406;28;20166;-68
2023/04/25 00:26:15;;;;;;;15.33;5.77;;;9.90;18.20;;;;;;5095575;28;20520;-68
2023/04/25 00:28:41;;;;;;;13.63;4.70;;;10.00;15.70;;;;;;5095306;28;20167;-68
2023/04/25 00:31:07;;;;;;;18.00;5.20;;;10.10;14.20;;;;;;5095174;28;20286;-68
2023/04/25 00:33:32;;;;;;;14.10;5.17;;;10.10;17.20;;;;;;5094711;28;20168;-68
2023/04/25 00:35:58;;;;;;;16.73;5.10;;;10.00;16.40;;;;;;5094965;28;20196;-67
2023/04/25 00:38:24;;;;;;;16.63;5.60;;;9.90;19.80;;;;;;5095186;28;20176;-69
2023/04/25 00:40:49;;;;;;;13.53;5.53;;;9.80;23.50;;;;;;5094982;28;20649;-68
2023/04/25 00:43:15;;;;;;;13.10;5.43;;;9.90;26.10;;;;;;5095056;28;20371;-67
2023/04/25 00:45:42;;;;;;;13.97;5.43;;;10.00;28.30;;;;;;5094927;28;20199;-67
2023/04/25 00:48:08;;;;;;;17.47;5.30;;;9.90;32.60;;;;;;5094562;28;20198;-67
2023/04/25 00:50:35;;;;;;;15.87;5.40;;;9.90;36.60;;;;;;5094773;28;20164;-67
2023/04/25 00:53:01;;;;;;;17.57;6.10;;;9.90;39.30;;;;;;5094996;28;20183;-68
2023/04/25 00:55:27;;;;;;;18.33;5.17;;;9.90;41.60;;;;;;5094693;28;20171;-67
2023/04/25 00:57:53;;;;;;;19.23;5.50;;;9.90;43.30;;;;;;5095015;28;20524;-67
2023/04/25 01:00:19;;;;;;;16.13;5.37;;;9.90;47.00;;;;;;5094642;28;20282;-67
2023/04/25 01:02:46;;;;;;;19.43;5.83;;;9.80;50.40;;;;;;5094371;28;20176;-67
2023/04/25 01:05:12;;;;;;;18.33;5.70;;;9.70;57.30;;;;;;5094501;28;20203;-66
2023/04/25 01:07:38;;;;;;;17.70;5.63;;;9.60;61.20;;;;;;5094580;28;20229;-67
2023/04/25 01:10:05;;;;;;;11.80;5.70;;;9.50;62.80;;;;;;5093684;28;20199;-67
2023/04/25 01:12:31;;;;;;;19.47;6.27;;;9.50;64.10;;;;;;5093295;28;20180;-67
2023/04/25 01:14:57;;;;;;;16.67;5.80;;;9.50;64.40;;;;;;5094301;28;20187;-67
2023/04/25 01:17:23;;;;;;;19.13;5.67;;;9.60;66.90;;;;;;5092837;28;20635;-68
2023/04/25 01:19:50;;;;;;;20.87;6.37;;;9.60;69.40;;;;;;5094493;28;20237;-67
2023/04/25 01:22:16;;;;;;;19.10;5.87;;;9.60;69.90;;;;;;5094395;28;20214;-68
2023/04/25 01:24:43;;;;;;;16.90;6.27;;;9.60;69.00;;;;;;5094326;28;20171;-67
2023/04/25 01:27:09;;;;;;;15.73;6.20;;;9.50;68.30;;;;;;5094363;28;20234;-68
2023/04/25 01:29:35;;;;;;;19.43;5.63;;;9.50;70.40;;;;;;5094022;28;20175;-67
2023/04/25 01:32:01;;;;;;;19.07;6.10;;;9.50;71.10;;;;;;5093639;28;20231;-67
2023/04/25 01:34:27;;;;;;;15.90;5.70;;;9.60;69.40;;;;;;5093956;28;20594;-68
2023/04/25 01:36:53;;;;;;;18.17;5.83;;;9.60;63.60;;;;;;5094006;28;20199;-67
2023/04/25 01:39:19;;;;;;;16.70;5.33;;;9.60;61.80;;;;;;5093971;28;20190;-67
2023/04/25 01:41:48;;;;;;;14.97;6.00;;;9.60;62.00;;;;;;5093720;28;20219;-67
2023/04/25 01:44:15;;;;;;;17.80;5.70;;;9.50;63.40;;;;;;5094070;28;20176;-67
2023/04/25 01:46:41;;;;;;;18.47;5.67;;;9.50;65.30;;;;;;5093254;28;20172;-67
2023/04/25 01:49:07;;;;;;;14.10;5.13;;;9.40;66.00;;;;;;5093981;28;20164;-67
2023/04/25 01:51:33;;;;;;;21.17;5.27;;;9.30;71.00;;;;;;5093551;28;20172;-67
2023/04/25 01:53:59;;;;;;;24.17;5.63;;;9.20;75.50;;;;;;5093925;28;20289;-67
2023/04/25 01:56:25;;;;;;;18.07;5.63;;;9.20;82.20;;;;;;5092256;28;20370;-68
2023/04/25 01:58:51;;;;;;;22.80;6.30;;;9.20;86.40;;;;;;5093825;28;20255;-67
2023/04/25 02:01:17;;;;;;;19.70;5.77;;;9.20;86.90;;;;;;5093072;28;20179;-67
2023/04/25 02:03:43;;;;;;;13.73;5.53;;;9.10;85.80;;;;;;5093768;28;20164;-67
2023/04/25 02:06:09;;;;;;;18.10;5.80;;;9.10;91.20;;;;;;5093491;28;20627;-67
2023/04/25 02:08:37;;;;;;;19.10;6.03;;;9.10;93.30;;;;;;5093650;28;20170;-68
2023/04/25 02:11:03;;;;;;;17.40;6.33;;;9.10;94.40;;;;;;5093324;28;20222;-67
2023/04/25 02:13:28;;;;;;;16.13;5.43;;;9.10;94.80;;;;;;5093530;28;20176;-67
2023/04/25 02:15:54;;;;;;;18.97;5.90;;;9.10;95.00;;;;;;5092761;28;20301;-67
2023/04/25 02:18:20;;;;;;;18.13;5.63;;;9.10;96.70;;;;;;5093468;28;20562;-67
2023/04/25 02:20:46;;;;;;;13.47;5.73;;;9.10;96.70;;;;;;5093140;28;20164;-67
2023/04/25 02:23:12;;;;;;;17.80;6.20;;;9.00;98.10;;;;;;5093484;28;20175;-67
2023/04/25 02:25:38;;;;;;;17.60;5.90;;;9.10;99.10;;;;;;5093198;28;20164;-67
2023/04/25 02:28:03;;;;;;;10.93;5.33;;;9.10;99.70;;;;;;5093519;28;20199;-67
2023/04/25 02:30:29;;;;;;;13.97;5.73;;;9.10;99.90;;;;;;5092687;28;20270;-67
2023/04/25 02:32:56;;;;;;;17.20;5.87;;;9.10;99.90;;;;;;5093333;28;20192;-67
2023/04/25 02:35:21;;;;;;;17.87;6.23;;;9.00;99.90;;;;;;5092957;28;20187;-67
2023/04/25 02:37:47;;;;;;;11.70;5.77;;;9.10;99.90;;;;;;5093322;28;20180;-67
2023/04/25 02:40:13;;;;;;;18.03;5.87;;;9.10;99.90;;;;;;5092674;28;20168;-67
2023/04/25 02:42:38;;;;;;;16.77;5.77;;;9.00;99.90;;;;;;5092907;28;20235;-67
2023/04/25 02:45:04;;;;;;;12.83;5.60;;;9.00;99.90;;;;;;5092684;28;20180;-67
2023/04/25 02:47:30;;;;;;;15.40;5.97;;;9.10;99.90;;;;;;5093142;28;20179;-67
2023/04/25 02:49:56;;;;;;;13.63;5.67;;;9.10;99.90;;;;;;5092954;28;20631;-67
2023/04/25 02:52:21;;;;;;;19.77;6.10;;;9.10;99.90;;;;;;5092887;28;20176;-68
2023/04/25 02:54:47;;;;;;;16.17;5.87;;;9.10;99.90;;;;;;5093187;28;20242;-67
2023/04/25 02:57:12;;;;;;;18.57;5.83;;;9.10;99.90;;;;;;5074485;28;20260;-68
2023/04/25 02:59:38;;;;;;;17.83;6.17;;;9.00;99.90;;;;;;5091549;28;20512;-67
2023/04/25 03:02:04;;;;;;;19.00;6.13;;;9.00;99.90;;;;;;5092826;28;20632;-67
2023/04/25 03:04:29;;;;;;;17.07;5.53;;;9.00;99.90;;;;;;5093090;28;20175;-67
2023/04/25 03:06:55;;;;;;;14.10;5.60;;;9.00;99.90;;;;;;5092560;28;20176;-67
2023/04/25 03:09:21;;;;;;;14.57;5.80;;;8.90;99.90;;;;;;5092531;28;20209;-67
2023/04/25 03:11:47;;;;;;;16.43;5.67;;;9.00;99.90;;;;;;5092448;28;20229;-66
2023/04/25 03:14:13;;;;;;;18.17;5.90;;;8.90;99.90;;;;;;5092279;28;20692;-67
2023/04/25 03:16:39;;;;;;;20.13;5.80;;;8.90;99.90;;;;;;5092587;28;20216;-68
2023/04/25 03:19:05;;;;;;;15.80;5.37;;;8.90;99.90;;;;;;5092436;28;20164;-67
2023/04/25 03:21:32;;;;;;;19.47;6.07;;;8.90;99.90;;;;;;5092413;28;20658;-66
2023/04/25 03:23:59;;;;;;;21.77;6.00;;;9.00;97.20;;;;;;5092596;28;20165;-67
2023/04/25 03:26:24;;;;;;;15.77;5.37;;;8.90;95.80;;;;;;5092591;28;20635;-67
2023/04/25 03:28:50;;;;;;;16.80;5.40;;;8.90;94.00;;;;;;5092270;28;20171;-67
2023/04/25 03:31:16;;;;;;;18.20;5.43;;;8.70;93.50;;;;;;5092418;28;20281;-67
2023/04/25 03:33:41;;;;;;;16.33;5.70;;;8.60;96.40;;;;;;5096044;28;20213;-67
2023/04/25 03:36:08;;;;;;;15.20;6.10;;;8.60;99.00;;;;;;5095973;28;20294;-67
2023/04/25 03:38:33;;;;;;;24.83;6.33;;;8.70;98.70;;;;;;5094865;28;20586;-67
2023/04/25 03:40:59;;;;;;;20.03;5.33;;;8.70;97.50;;;;;;5096059;28;20183;-67
2023/04/25 03:43:24;;;;;;;18.67;6.43;;;8.60;96.60;;;;;;5094018;28;20798;-67
2023/04/25 03:45:51;;;;;;;18.77;5.63;;;8.60;97.30;;;;;;5094516;28;20183;-67
2023/04/25 03:48:16;;;;;;;17.47;5.60;;;8.60;97.70;;;;;;5095911;28;20264;-67
2023/04/25 03:50:42;;;;;;;18.27;5.67;;;8.60;95.80;;;;;;5094265;28;20268;-66
2023/04/25 03:53:07;;;;;;;18.03;5.40;;;8.50;94.40;;;;;;5095526;28;20171;-67
2023/04/25 03:55:33;;;;;;;13.30;5.03;;;8.50;93.90;;;;;;5096012;28;20179;-68
2023/04/25 03:57:59;;;;;;;21.60;5.80;;;8.50;90.20;;;;;;5094993;28;20644;-67
2023/04/25 04:00:25;;;;;;;17.03;5.37;;;8.40;90.20;;;;;;5095790;28;20203;-67
2023/04/25 04:02:51;;;;;;;19.30;4.97;;;8.40;91.80;;;;;;5095616;28;20180;-67
2023/04/25 04:05:16;;;;;;;21.20;5.50;;;8.30;92.00;;;;;;5095379;28;20701;-67
2023/04/25 04:07:42;;;;;;;21.93;5.57;;;8.30;92.00;;;;;;5095570;28;20633;-67
2023/04/25 04:10:09;;;;;;;15.27;5.43;;;8.40;93.00;;;;;;5095492;28;20520;-67
2023/04/25 04:12:35;;;;;;;15.67;5.30;;;8.40;86.10;;;;;;5094640;28;20176;-67
2023/04/25 04:15:03;;;;;;;14.00;5.23;;;8.50;85.30;;;;;;5111024;28;20578;-67
2023/04/25 04:17:29;;;;;;;17.73;5.60;;;8.40;87.20;;;;;;5095049;28;20207;-68
2023/04/25 04:19:55;;;;;;;13.37;5.57;;;8.30;87.50;;;;;;5095528;28;20218;-67
2023/04/25 04:22:22;;;;;;;16.87;5.53;;;8.30;92.00;;;;;;5095358;28;20565;-67
2023/04/25 04:24:47;;;;;;;14.00;5.63;;;8.30;94.30;;;;;;5095248;28;20164;-67
2023/04/25 04:27:13;;;;;;;18.80;6.20;;;8.40;93.70;;;;;;5094233;28;20230;-67
2023/04/25 04:29:39;;;;;;;19.60;6.13;;;8.40;90.90;;;;;;5094917;28;20528;-67
2023/04/25 04:32:05;;;;;;;23.73;6.30;;;8.40;90.80;;;;;;5094619;28;20270;-67
2023/04/25 04:34:30;;;;;;;16.67;6.30;;;8.40;90.60;;;;;;5094967;28;20700;-66
2023/04/25 04:36:56;;;;;;;14.33;5.30;;;8.40;89.50;;;;;;5094810;28;20265;-65
2023/04/25 04:39:22;;;;;;;20.50;5.87;;;8.40;90.00;;;;;;5094983;28;20167;-67
2023/04/25 04:41:48;;;;;;;10.87;5.30;;;8.50;90.80;;;;;;5093986;28;20249;-67
2023/04/25 04:44:14;;;;;;;19.00;5.37;;;8.60;90.30;;;;;;5093248;28;20172;-68
2023/04/25 04:46:44;;;;;;;19.40;5.33;;;8.60;80.90;;;;;;5094090;28;20172;-68
2023/04/25 04:49:10;;;;;;;16.43;5.23;;;8.60;79.80;;;;;;5094436;28;20639;-67
2023/04/25 04:51:36;;;;;;;19.60;5.83;;;8.50;79.10;;;;;;5094217;28;20316;-67
2023/04/25 04:54:03;;;;;;;20.27;5.87;;;8.50;80.50;;;;;;5094145;28;20188;-68
2023/04/25 04:56:30;;;;;;;16.43;5.93;;;8.50;86.40;;;;;;5092495;28;20243;-67
2023/04/25 04:58:56;;;;;;;15.30;5.73;;;8.50;85.00;;;;;;5094225;28;20639;-68
2023/04/25 05:01:23;;;;;;;24.23;6.00;;;8.40;78.40;;;;;;5093979;28;20176;-67
2023/04/25 05:03:49;;;;;;;15.87;5.63;;;8.40;73.00;;;;;;5092748;28;20265;-67
2023/04/25 05:06:16;;;;;;;17.50;5.90;;;8.30;74.40;;;;;;5094110;28;20214;-68
2023/04/25 05:08:41;;;;;;;12.03;5.13;;;8.40;72.10;;;;;;5092087;28;20179;-66
2023/04/25 05:11:07;;;;;;;15.57;5.57;;;8.30;73.70;;;;;;5093449;28;20249;-67
2023/04/25 05:13:32;;;;;;;13.63;5.37;;;8.30;71.00;;;;;;5093719;28;20693;-69
2023/04/25 05:15:58;;;;;;;27.00;6.17;;;8.20;69.50;;;;;;5093418;28;20594;-67
2023/04/25 05:18:24;;;;;;;12.97;5.80;;;8.30;68.80;;;;;;5093624;28;20298;-67
2023/04/25 05:20:49;;;;;;;15.27;5.13;;;8.20;60.40;;;;;;5093688;28;20642;-67
2023/04/25 05:23:16;;;;;;;14.77;5.57;;;8.10;68.30;;;;;;5093110;28;20164;-67
2023/04/25 05:25:41;;;;;;;13.97;5.00;;;8.00;72.60;;;;;;5093180;28;20528;-66
2023/04/25 05:28:07;;;;;;;16.20;6.33;;;8.00;75.10;;;;;;5092759;28;20168;-68
2023/04/25 05:30:35;;;;;;;18.17;6.20;;;7.80;86.60;;;;;;5093411;28;20510;-67
2023/04/25 05:33:01;;;;;;;17.13;6.80;;;7.90;92.50;;;;;;5093295;28;20647;-67
2023/04/25 05:35:27;;;;;;;18.97;7.53;;;8.00;94.90;;;;;;5092947;28;20347;-67
2023/04/25 05:37:52;;;;;;;20.17;7.60;;;7.80;84.00;;;;;;5092491;28;20571;-68
2023/04/25 05:40:18;;;;;;;20.40;7.50;;;7.60;91.30;;;;;;5092244;28;20619;-68
2023/04/25 05:42:44;;;;;;;15.07;6.77;;;7.60;92.00;;;;;;5092881;28;20230;-67
2023/04/25 05:45:09;;;;;;;20.57;6.40;;;7.60;95.10;;;;;;5092672;28;20532;-68
2023/04/25 05:47:35;;;;;;;21.67;7.60;;;7.50;94.20;;;;;;5092998;28;20171;-67
2023/04/25 05:50:01;;;;;;;21.10;7.37;;;7.60;99.70;;;;;;5092511;28;20164;-68
2023/04/25 05:52:28;;;;;;;18.33;7.03;;;7.80;99.90;;;;;;5093030;28;20172;-67
2023/04/25 05:54:53;;;;;;;20.13;7.27;;;8.00;98.70;;;;;;5092179;28;20167;-67
2023/04/25 05:57:24;;;;;;;14.70;5.50;;;8.20;96.30;;;;;;5092095;28;20223;-69
2023/04/25 05:59:50;;;;;;;14.03;6.20;;;8.20;83.20;;;;;;5091629;28;20647;-68
2023/04/25 06:02:16;;;;;;;19.03;6.60;;;8.30;80.20;;;;;;5092979;28;20317;-67
2023/04/25 06:04:41;;;;;;;14.87;6.27;;;8.40;80.30;;;;;;5073524;28;20521;-67
2023/04/25 06:07:07;;;;;;;13.83;6.27;;;8.40;75.40;;;;;;5090464;28;20658;-68
2023/04/25 06:09:32;;;;;;;16.73;6.37;;;8.60;78.50;;;;;;5091525;28;20172;-68
2023/04/25 06:11:58;;;;;;;16.43;6.70;;;8.70;73.20;;;;;;5091595;28;20229;-68
2023/04/25 06:14:23;;;;;;;12.00;6.43;;;8.90;69.60;;;;;;5091989;28;20175;-68
2023/04/25 06:16:49;;;;;;;13.57;6.93;;;8.90;60.60;;;;;;5092230;28;20211;-67
2023/04/25 06:19:14;;;;;;;13.73;6.80;;;9.10;55.10;;;;;;5091744;28;20182;-68
2023/04/25 06:21:43;;;;;;;11.70;5.87;;;9.30;48.00;;;;;;5092007;28;20225;-68
2023/04/25 06:24:08;;;;;;;21.13;6.63;;;9.40;36.50;;;;;;5091559;28;20172;-67
2023/04/25 06:26:34;;;;;;;18.77;6.53;;;9.60;29.60;;;;;;5092226;28;20176;-68
2023/04/25 06:28:59;;;;;;;13.53;5.70;;;9.70;22.90;;;;;;5090062;28;20697;-68
2023/04/25 06:31:25;;;;;;;13.60;5.83;;;9.80;10.80;;;;;;5092890;28;20563;-67
2023/04/25 06:33:54;;;;;;;13.70;5.20;;;10.00;3.40;;;;;;5091484;28;20179;-67
2023/04/25 06:36:24;;;;;;;13.93;5.37;;;10.10;1.00;;;;;;5090975;28;20207;-68
2023/04/25 06:38:50;;;;;;;10.80;5.50;;;10.20;1.00;;;;;;5090578;28;20180;-69
2023/04/25 06:41:16;;;;;;;13.03;5.00;;;10.00;1.00;;;;;;5092092;28;20171;-69
2023/04/25 06:43:41;;;;;;;13.40;4.60;;;9.90;1.00;;;;;;5090524;28;20219;-67
2023/04/25 06:46:07;;;;;;;10.10;4.57;;;9.90;1.00;;;;;;5091335;28;20186;-68
2023/04/25 06:48:33;;;;;;;18.17;5.10;;;9.90;1.00;;;;;;5090625;28;20202;-69
2023/04/25 06:50:58;;;;;;;13.07;4.83;;;10.10;1.00;;;;;;5091073;28;20625;-67
2023/04/25 06:53:24;;;;;;;10.73;3.93;;;10.10;1.00;;;;;;5091900;28;20202;-70
2023/04/25 06:55:50;;;;;;;11.30;5.07;;;10.30;1.00;;;;;;5090252;28;20618;-68
2023/04/25 06:58:15;;;;;;;13.77;5.63;;;10.40;1.00;;;;;;5091606;28;20221;-68
2023/04/25 07:00:41;;;;;;;11.00;4.70;;;10.40;1.00;;;;;;5091523;28;20697;-69
2023/04/25 07:03:07;;;;;;;13.23;4.50;;;10.40;1.00;;;;;;5091938;28;20582;-69
2023/04/25 07:05:35;;;;;;;15.07;4.57;;;10.40;1.00;;;;;;5091280;28;20255;-68
2023/04/25 07:08:01;;;;;;;13.97;4.83;;;10.40;1.00;;;;;;5089541;28;20266;-69
2023/04/25 07:10:27;;;;;;;17.00;5.07;;;10.50;1.00;;;;;;5090217;28;20714;-70
2023/04/25 07:12:52;;;;;;;13.47;4.87;;;10.60;1.00;;;;;;5094330;28;20184;-69
2023/04/25 07:15:18;;;;;;;13.17;4.23;;;10.60;1.00;;;;;;5094787;28;20176;-67
2023/04/25 07:17:44;;;;;;;11.37;4.03;;;10.70;1.00;;;;;;5095717;28;20551;-68
2023/04/25 07:20:10;;;;;;;16.07;4.33;;;10.70;1.00;;;;;;5087810;28;20180;-70
2023/04/25 07:22:36;;;;;;;14.77;4.53;;;10.50;1.00;;;;;;5091905;28;20171;-69
2023/04/25 07:25:02;;;;;;;13.00;3.90;;;10.50;1.00;;;;;;5095098;28;20623;-68
2023/04/25 07:27:28;;;;;;;11.37;4.03;;;10.40;1.00;;;;;;5091937;28;20639;-68
2023/04/25 07:29:54;;;;;;;14.10;3.80;;;10.20;1.00;;;;;;5094147;28;20172;-68
2023/04/25 07:32:19;;;;;;;6.93;3.70;;;10.40;1.00;;;;;;5092868;28;20196;-69
2023/04/25 07:34:45;;;;;;;12.63;5.17;;;10.40;1.00;;;;;;5092415;28;20175;-70
2023/04/25 07:37:10;;;;;;;10.53;4.67;;;10.60;1.00;;;;;;5094791;28;20230;-70
2023/04/25 07:39:37;;;;;;;15.90;4.77;;;10.80;1.00;;;;;;5094222;28;20172;-70
2023/04/25 07:42:03;;;;;;;11.63;4.37;;;11.00;1.00;;;;;;5093793;28;20686;-70
2023/04/25 07:44:30;;;;;;;11.67;4.00;;;11.20;1.00;;;;;;5093889;28;20171;-70
2023/04/25 07:46:56;;;;;;;15.30;3.80;;;11.20;1.00;;;;;;5092043;28;20175;-70
2023/04/25 07:49:21;;;;;;;10.33;3.20;;;11.40;1.00;;;;;;5092592;28;20271;-70
2023/04/25 07:51:47;;;;;;;11.63;3.93;;;11.50;1.00;;;;;;5093217;28;20172;-70
2023/04/25 07:54:14;;;;;;;9.97;3.60;;;11.70;1.00;;;;;;5093874;28;20196;-69
2023/04/25 07:56:40;;;;;;;12.27;4.43;;;11.60;1.00;;;;;;5092808;28;20219;-70
2023/04/25 07:59:06;;;;;;;11.20;3.40;;;12.00;1.00;;;;;;5095141;28;20596;-71
2023/04/25 08:01:31;;;;;;;10.87;3.60;;;12.10;1.00;;;;;;5094032;28;20619;-70
2023/04/25 08:03:57;;;;;;;10.77;3.43;;;12.40;1.00;;;;;;5094502;28;20168;-70
2023/04/25 08:06:22;;;;;;;12.70;3.47;;;12.40;1.00;;;;;;5095136;28;20176;-70
2023/04/25 08:08:48;;;;;;;7.40;3.00;;;12.70;1.00;;;;;;5094732;28;20335;-70
2023/04/25 08:11:14;;;;;;;14.10;3.20;;;12.80;1.00;;;;;;5094644;28;20617;-71
2023/04/25 08:13:39;;;;;;;10.10;3.47;;;13.00;1.00;;;;;;5094529;28;20213;-71
2023/04/25 08:16:05;;;;;;;16.50;4.30;;;13.00;99.90;;;;;;5093771;28;20199;-69
2023/04/25 08:18:34;;;;;;;11.63;3.87;;;13.20;99.90;;;;;;5094187;28;20206;-70
2023/04/25 08:20:59;;;;;;;11.43;3.77;;;13.60;1.00;;;;;;5094256;28;20168;-70
2023/04/25 08:23:28;;;;;;;9.23;3.20;;;13.90;99.90;;;;;;5095241;28;20221;-70
2023/04/25 08:25:54;;;;;;;10.33;3.90;;;14.10;99.90;;;;;;5094097;28;20695;-70
2023/04/25 08:28:25;;;;;;;7.27;3.23;;;14.40;99.90;;;;;;5094580;28;20239;-70
2023/04/25 08:30:56;;;;;;;7.80;3.63;;;14.50;99.90;;;;;;5094548;28;20269;-70
2023/04/25 08:33:22;;;;;;;9.40;3.87;;;14.70;24.00;;;;;;5093811;28;20175;-70
2023/04/25 08:35:47;;;;;;;9.73;3.40;;;14.80;1.00;;;;;;5094174;28;20235;-70
2023/04/25 08:38:13;;;;;;;7.27;3.10;;;14.40;1.00;;;;;;5094456;28;20232;-71
2023/04/25 08:40:39;;;;;;;6.00;3.40;;;14.20;1.00;;;;;;5093642;28;20245;-70
2023/04/25 08:43:11;;;;;;;9.90;3.70;;;14.30;99.90;;;;;;5093919;28;20249;-71
2023/04/25 08:45:41;;;;;;;6.17;3.13;;;15.90;1.00;;;;;;5094468;28;20156;-71
2023/04/25 08:48:11;;;;;;;11.18;4.97;;;18.00;1.00;;;;;;5093764;28;20201;-71
2023/04/25 08:50:53;;;;;;;6.50;4.30;;;19.60;1.00;;;;;;5092781;28;20611;-70
2023/04/25 08:53:37;;;;;;;6.80;3.30;;;19.60;99.90;;;;;;5094055;28;20175;-71
2023/04/25 08:56:03;;;;;;;9.45;3.63;;;20.20;99.90;;;;;;5092651;28;20203;-70
2023/04/25 08:58:30;;;;;;;5.43;2.88;;;20.40;99.90;;;;;;5094163;28;20187;-71
2023/04/25 09:00:56;;;;;;;4.35;2.90;;;19.50;99.90;;;;;;5093665;28;20172;-71
2023/04/25 09:03:21;;;;;;;6.75;3.00;;;18.90;99.90;;;;;;5093552;28;20284;-70
2023/04/25 09:05:47;;;;;;;9.65;2.70;;;17.60;1.00;;;;;;5093297;28;20627;-70
2023/04/25 09:08:13;;;;;;;5.78;2.83;;;16.90;1.00;;;;;;5093503;28;20632;-70
2023/04/25 09:10:40;;;;;;;9.05;3.22;;;16.60;1.00;;;;;;5093312;28;20646;-70
2023/04/25 09:13:17;;;;;;;8.75;3.38;;;16.40;1.00;;;;;;5093774;28;20211;-70
2023/04/25 09:15:51;;;;;;;13.88;2.78;;;16.20;1.00;;;;;;5093153;28;20172;-70
2023/04/25 09:18:27;;;;;;;6.10;2.63;;;15.50;26.20;;;;;;5093814;28;20271;-70
2023/04/25 09:20:54;;;;;;;8.27;2.90;;;14.50;1.00;;;;;;5093605;28;20634;-69
2023/04/25 09:23:21;;;;;;;12.30;3.33;;;14.00;99.90;;;;;;5093409;28;20168;-70
2023/04/25 09:25:52;;;;;;;8.43;3.13;;;13.80;99.90;;;;;;5093004;28;20168;-71
2023/04/25 09:28:25;;;;;;;8.23;3.20;;;13.50;1.00;;;;;;5093392;28;20222;-70
2023/04/25 09:30:55;;;;;;;14.60;3.47;;;13.20;1.00;;;;;;5092479;28;20639;-71
2023/04/25 09:33:26;;;;;;;7.60;3.97;;;12.90;18.80;;;;;;5091969;28;20164;-70
2023/04/25 09:36:07;;;;;;;6.80;3.27;;;12.80;1.00;;;;;;5093495;28;20168;-70
2023/04/25 09:38:48;;;;;;;7.10;2.53;;;13.30;1.00;;;;;;5093288;28;20172;-70
2023/04/25 09:41:23;;;;;;;9.23;2.87;;;14.40;1.00;;;;;;5093043;28;20171;-69
2023/04/25 09:43:50;;;;;;;7.90;3.07;;;15.60;1.00;;;;;;5093221;28;20206;-70
2023/04/25 09:46:17;;;;;;;7.10;2.25;;;17.10;1.00;;;;;;5092738;28;20298;-70
2023/04/25 09:48:49;;;;;;;5.43;2.10;;;19.20;1.00;;;;;;5092642;28;20195;-71
2023/04/25 09:51:15;;;;;;;4.38;2.15;;;20.60;99.90;;;;;;5092902;28;20668;-71
2023/04/25 09:53:42;;;;;;;5.30;2.28;;;21.20;99.90;;;;;;5093397;28;20200;-71
2023/04/25 09:56:10;;;;;;;5.65;2.67;;;21.10;99.90;;;;;;5092349;28;20195;-70
2023/04/25 09:58:37;;;;;;;4.97;2.47;;;20.40;99.90;;;;;;5092894;28;20171;-71
2023/04/25 10:01:08;;;;;;;4.75;2.08;;;20.10;99.90;;;;;;5091856;28;20168;-69
2023/04/25 10:03:39;;;;;;;4.95;2.42;;;19.10;99.90;;;;;;5093319;28;20182;-70
2023/04/25 10:06:12;;;;;;;5.88;2.05;;;18.20;99.90;;;;;;5092780;28;20220;-71
2023/04/25 10:08:41;;;;;;;7.35;2.00;;;18.30;99.90;;;;;;5092254;28;20163;-71
2023/04/25 10:11:14;;;;;;;5.05;1.92;;;18.10;99.90;;;;;;5092667;28;20296;-70
2023/04/25 10:13:40;;;;;;;6.80;2.33;;;17.20;1.00;;;;;;5092191;28;20217;-71
2023/04/25 10:16:06;;;;;;;5.85;1.95;;;18.10;99.90;;;;;;5090989;28;20195;-72
2023/04/25 10:18:32;;;;;;;6.00;2.17;;;19.30;99.90;;;;;;5092016;28;20229;-69
2023/04/25 10:21:01;;;;;;;4.85;2.42;;;20.40;99.90;;;;;;5092258;28;20624;-70
2023/04/25 10:23:28;;;;;;;2.95;2.22;;;20.90;99.90;;;;;;5091970;28;20165;-70
2023/04/25 10:25:54;;;;;;;2.70;2.20;;;21.10;99.90;;;;;;5090891;28;20164;-73
2023/04/25 10:28:20;;;;;;;5.47;1.80;;;21.10;99.90;;;;;;5079990;28;20194;-70
2023/04/25 10:31:04;;;;;;;5.60;1.90;;;19.80;99.90;;;;;;5088900;28;20199;-70
2023/04/25 10:33:41;;;;;;;5.60;2.28;;;18.50;99.90;;;;;;5092354;28;20172;-68
2023/04/25 10:36:17;;;;;;;6.15;2.30;;;18.50;99.90;;;;;;5084680;28;20286;-69
2023/04/25 10:38:43;;;;;;;4.95;2.15;;;17.60;99.90;;;;;;5070308;28;20176;-69
2023/04/25 10:41:10;;;;;;;3.30;1.55;;;17.50;99.90;;;;;;5070578;28;20169;-69
2023/04/25 10:43:46;;;;;;;3.45;1.80;;;17.10;99.90;;;;;;5075789;28;20220;-69
2023/04/25 10:46:23;;;;;;;7.65;2.53;;;16.80;99.90;;;;;;5074802;28;20176;-69
2023/04/25 10:48:53;;;;;;;7.63;3.05;;;16.70;99.90;;;;;;5076165;28;20183;-70
2023/04/25 10:51:26;;;;;;;4.70;2.40;;;16.40;1.00;;;;;;5074324;28;20169;-69
2023/04/25 10:53:55;;;;;;;6.47;2.70;;;15.70;1.00;;;;;;5075875;28;20179;-68
2023/04/25 10:56:27;;;;;;;5.40;2.77;;;15.60;1.00;;;;;;5095636;28;20274;-69
2023/04/25 10:59:17;;;;;;;5.47;2.50;;;15.60;1.00;;;;;;5095506;28;20300;-69
2023/04/25 11:01:45;;;;;;;9.23;2.37;;;15.40;1.00;;;;;;5095486;28;20145;-68
2023/04/25 11:04:44;;;;;;;7.00;2.40;;;15.20;99.90;;;;;;5094707;28;20172;-70
2023/04/25 11:07:13;;;;;;;9.33;2.03;;;14.80;9.40;;;;;;5016172;28;20186;-69
2023/04/25 11:09:40;;;;;;;8.83;2.87;;;14.00;99.90;;;;;;5032619;28;20525;-69
2023/04/25 11:12:09;;;;;;;6.13;2.67;;;13.60;99.90;;;;;;5014226;28;20178;-70
2023/04/25 11:14:35;;;;;;;7.00;2.27;;;13.30;1.00;;;;;;5033259;28;20209;-70
2023/04/25 11:17:02;;;;;;;8.13;2.13;;;13.10;1.00;;;;;;5029555;28;20264;-71
2023/04/25 11:19:28;;;;;;;7.40;2.40;;;13.60;1.00;;;;;;5033577;28;20178;-70
2023/04/25 11:21:58;;;;;;;6.37;2.20;;;14.10;99.90;;;;;;5031289;28;20704;-70
2023/04/25 11:24:31;;;;;;;6.60;2.57;;;14.50;99.90;;;;;;5013466;28;20231;-70
2023/04/25 11:27:05;;;;;;;5.47;2.60;;;14.80;1.00;;;;;;5013432;28;20179;-70
2023/04/25 11:29:32;;;;;;;7.53;2.87;;;14.70;99.90;;;;;;4996787;28;20649;-71
2023/04/25 11:32:00;;;;;;;7.70;2.33;;;14.80;99.90;;;;;;5012574;28;20233;-68
2023/04/25 11:34:30;;;;;;;9.37;2.77;;;14.80;1.00;;;;;;5029996;28;20557;-70
2023/04/25 11:36:56;;;;;;;5.40;2.00;;;15.00;1.00;;;;;;5029086;28;20224;-70
2023/04/25 11:39:24;;;;;;;8.40;3.00;;;15.50;1.00;;;;;;5013348;28;20170;-70
2023/04/25 11:41:50;;;;;;;6.57;2.47;;;15.80;1.00;;;;;;5020449;28;20216;-70
2023/04/25 11:44:17;;;;;;;7.75;1.95;;;15.80;1.00;;;;;;5092435;28;20525;-69
2023/04/25 11:46:43;;;;;;;4.60;2.10;;;15.90;99.90;;;;;;5094792;28;20186;-70
2023/04/25 11:49:09;;;;;;;3.05;1.70;;;16.00;99.90;;;;;;5090789;28;20179;-69
2023/04/25 11:51:41;;;;;;;3.63;1.60;;;15.90;1.00;;;;;;5088695;28;20188;-68
2023/04/25 11:54:07;;;;;;;4.55;1.58;;;16.20;1.00;;;;;;5093700;28;20171;-68
2023/04/25 11:56:33;;;;;;;6.00;2.40;;;16.70;1.00;;;;;;5093901;28;20226;-69
2023/04/25 11:59:04;;;;;;;3.42;1.90;;;16.50;1.00;;;;;;5094453;28;20769;-69
2023/04/25 12:01:32;;;;;;;7.95;2.90;;;16.30;1.00;;;;;;5094200;28;20180;-68
2023/04/25 12:03:58;;;;;;;3.35;2.63;;;16.30;1.00;;;;;;5094390;28;20168;-69
2023/04/25 12:06:30;;;;;;;4.57;2.10;;;16.40;1.00;;;;;;5094445;28;20175;-69
2023/04/25 12:09:01;;;;;;;4.82;1.98;;;16.40;1.00;;;;;;5092781;28;20646;-69
2023/04/25 12:11:26;;;;;;;2.20;2.00;;;16.50;1.00;;;;;;5093647;28;20183;-69
2023/04/25 12:13:53;;;;;;;3.50;1.80;;;16.50;1.00;;;;;;5094054;28;20176;-68
2023/04/25 12:16:19;;;;;;;2.88;2.17;;;16.60;1.00;;;;;;5094083;28;20212;-68
2023/04/25 12:18:45;;;;;;;6.87;1.93;;;16.20;1.00;;;;;;5093904;28;20179;-69
2023/04/25 12:21:10;;;;;;;2.47;1.87;;;15.90;1.00;;;;;;5093593;28;20184;-70
2023/04/25 12:23:39;;;;;;;5.47;1.90;;;15.50;1.00;;;;;;5094083;28;20258;-69
2023/04/25 12:26:05;;;;;;;4.77;1.70;;;15.30;1.00;;;;;;5094273;28;20173;-69
2023/04/25 12:28:33;;;;;;;3.67;1.93;;;15.00;1.00;;;;;;5093983;28;20283;-70
2023/04/25 12:31:03;;;;;;;5.77;2.10;;;15.10;1.00;;;;;;5094053;28;20222;-70
2023/04/25 12:33:31;;;;;;;4.13;1.80;;;14.80;1.00;;;;;;5093405;28;20221;-69
2023/04/25 12:35:57;;;;;;;4.70;1.70;;;14.70;1.00;;;;;;5093463;28;20213;-70
2023/04/25 12:38:30;;;;;;;5.20;2.30;;;14.90;1.00;;;;;;5093415;28;20172;-70
2023/04/25 12:40:56;;;;;;;4.10;1.87;;;15.00;1.00;;;;;;5093610;28;20241;-69
2023/04/25 12:43:22;;;;;;;1.47;1.30;;;15.30;1.00;;;;;;5093600;28;20303;-70
2023/04/25 12:45:50;;;;;;;3.47;1.60;;;15.10;1.00;;;;;;5094728;28;20184;-69
2023/04/25 12:48:16;;;;;;;3.57;1.40;;;15.20;1.00;;;;;;5093845;28;20172;-70